Commit Graph

83 Commits

Author SHA1 Message Date
c34cb64325 overtime listing and leave application 2025-03-26 12:51:42 +00:00
8ddc3fc3f8 Driver + amendment + igr spelling mistake + service unwanted rray : ps 2025-03-12 11:12:55 +00:00
1b3219a643 Credit notes : GWM 2025-03-06 17:36:00 +05:30
9a590b9811 Merge branch 'new_theme' of bitbucket.org:venbainformationtechnology/ria into new_theme 2025-03-04 10:37:29 +05:30
520572206f Auditing team sales report: GWM 2025-03-04 10:37:17 +05:30
926c3ed2a9 drive payslip merged : ps 2025-02-26 13:22:04 +00:00
2daffcca64 Driver Payslip : ps 2025-02-10 09:55:01 +00:00
45368dec10 Driverpayinputs : ps 2025-02-07 11:55:16 +00:00
bef6ff6f1a gowtham raised issues fixes 2025-02-06 05:31:28 +00:00
1ec0d90bca fixes : ps 2025-02-05 13:22:47 +00:00
ba65f512ff Driver Module : ps 2025-02-05 11:59:39 +00:00
a2f229e3ab GWM : HR module 2025-02-03 14:16:50 +05:30
vadivelJ96
10557af01b stock module latest today vadivel J 24-01-2025 2025-01-24 12:48:53 +05:30
vadivelJ96
0f7cd34101 stock module latest today vadivel J 23-01-2025 2025-01-23 17:18:04 +05:30
39863dfb97 GWM 2025-01-23 10:41:54 +05:30
vadivelJ96
7d4e0aed1c stock module latest today vadivel J 22-01-2025 2025-01-22 11:32:29 +05:30
vadivelJ96
c929246f54 stock module latest today vadivel J 16-1-2025 2025-01-16 10:46:05 +05:30
vadivelJ96
3d086e2c1c igr module vadivel J 03-1-2025 2025-01-03 14:52:49 +05:30
vadivelJ96
19137a3098 stock module 1 vadivel J 31-12-2024 2024-12-31 14:09:18 +05:30
vadivelJ96
ae5ed3ce05 master module 3 vadivel J 30-12-2024 2024-12-30 12:30:06 +05:30
vadivelJ96
04afc3f7b8 master module 1 vadivel J 27-12-2024 2024-12-27 10:50:37 +05:30
b3c03ff6ba Sales : GWM 2024-12-24 17:34:05 +05:30
9fb782b4b7 Sales , hr 2024-12-24 09:54:02 +05:30
a33a830ebc Client changes : GWM 2024-12-20 08:21:18 +05:30
ec6a6c1b59 merge code : GWM 2024-12-17 10:20:57 +05:30
vadivelJ96
3da23bebab igr module changes-1 vadivel J 17-12-2024 2024-12-17 10:12:45 +05:30
vadivelJ96
a7346e793e stock module changes-2 vadivel J 16-12-2024 2024-12-16 23:55:10 +05:30
vadivelJ96
ca3a200ade stock module changes-3 vadivel J 12-12-2024 2024-12-12 16:01:16 +05:30
be20a35bdb Role related changes : GWm 2024-12-09 17:31:09 +05:30
56622e8c9c UI changes : GWM 2024-11-22 14:39:35 +05:30
vadivel J
d3fdd57fda changes in gas stock module -vadivel J 2024-11-13 10:13:55 +05:30
vadivel J
b193589451 changes in stock module -vadivel j 2024-11-11 18:00:52 +05:30
0a7eed3483 Merge conflit : GWM 2024-11-08 11:49:14 +05:30
dd5f71886b Power module : GWM 2024-11-08 11:45:12 +05:30
vadivel J
590e2fd1ec resin stock changes -vadivel J 2024-11-08 11:10:04 +05:30
vadivel J
c6821967d6 finished dust and rough module 2024-11-07 17:25:48 +05:30
302c4fdc61 GWM : ordering issue 2024-10-28 13:56:24 +05:30
1f3c50473d gwm 2024-10-25 14:53:04 +05:30
0b48980548 Merge branch 'new_theme' of bitbucket.org:venbainformationtechnology/ria into new_theme 2024-10-25 09:09:09 +05:30
15d09e5c7b Code merge : GWM 2024-10-25 09:09:01 +05:30
vadivelJ96
0eb98086b9 Merge branch 'new_theme' of bitbucket.org:venbainformationtechnology/ria into new_theme 2024-10-25 08:17:50 +05:30
vadivelJ96
a15bf13d56 25/10/2024 vadivel J 2024-10-25 08:17:38 +05:30
198ab86912 Auditor login Changes : GWM 2024-10-24 14:25:41 +05:30
0fc7f048b1 Auditor login changes : GWM 2024-10-24 12:02:46 +05:30
vadivel J
877db92512 started bag stock sub module 2024-10-22 17:34:34 +05:30
vadivel J
13b851d4be incoming silica sand details 70% comp 2024-10-21 17:52:38 +05:30
vadivel J
d14dee5b87 working on incoming silica module -vadivel J 2024-10-19 14:30:18 +05:30
vadivelJ96
c0b59d7836 stock module dev 17/10 -vadivel J 2024-10-17 23:00:15 +05:30
vadivelJ96
894c5083c9 added fields in stock module - vadivel J 2024-10-17 14:39:48 +05:30
75b19a7323 Stock module : GWM 2024-10-17 09:57:40 +05:30